sensor_id;sensor_type;location;lat;lon;timestamp;temperature;humidity
24374;DHT22;12498;50.880;12.096;2022-08-03T00:00:05;19.10;99.90
24374;DHT22;12498;50.880;12.096;2022-08-03T00:02:31;19.10;99.90
24374;DHT22;12498;50.880;12.096;2022-08-03T00:04:57;19.10;99.90
24374;DHT22;12498;50.880;12.096;2022-08-03T00:07:22;19.00;99.90
24374;DHT22;12498;50.880;12.096;2022-08-03T00:09:48;19.00;99.90
24374;DHT22;12498;50.880;12.096;2022-08-03T00:12:14;19.00;99.90
24374;DHT22;12498;50.880;12.096;2022-08-03T00:14:40;19.00;99.90
24374;DHT22;12498;50.880;12.096;2022-08-03T00:17:06;18.90;99.90
24374;DHT22;12498;50.880;12.096;2022-08-03T00:19:31;18.90;99.90
24374;DHT22;12498;50.880;12.096;2022-08-03T00:21:57;18.90;99.90
24374;DHT22;12498;50.880;12.096;2022-08-03T00:24:22;18.90;99.90
24374;DHT22;12498;50.880;12.096;2022-08-03T00:26:48;18.80;99.90
24374;DHT22;12498;50.880;12.096;2022-08-03T00:29:13;18.80;99.90
24374;DHT22;12498;50.880;12.096;2022-08-03T00:31:39;18.80;99.90
24374;DHT22;12498;50.880;12.096;2022-08-03T00:34:05;18.80;99.90
24374;DHT22;12498;50.880;12.096;2022-08-03T00:36:31;18.80;99.90
24374;DHT22;12498;50.880;12.096;2022-08-03T00:38:56;18.70;99.90
24374;DHT22;12498;50.880;12.096;2022-08-03T00:41:22;18.70;99.90
24374;DHT22;12498;50.880;12.096;2022-08-03T00:43:48;18.70;99.90
24374;DHT22;12498;50.880;12.096;2022-08-03T00:46:13;18.70;99.90
24374;DHT22;12498;50.880;12.096;2022-08-03T00:48:39;18.70;99.90
24374;DHT22;12498;50.880;12.096;2022-08-03T00:51:05;18.60;99.90
24374;DHT22;12498;50.880;12.096;2022-08-03T00:53:31;18.60;99.90
24374;DHT22;12498;50.880;12.096;2022-08-03T00:55:57;18.50;99.90
24374;DHT22;12498;50.880;12.096;2022-08-03T00:58:23;18.50;99.90
24374;DHT22;12498;50.880;12.096;2022-08-03T01:00:49;18.50;99.90
24374;DHT22;12498;50.880;12.096;2022-08-03T01:03:15;18.40;99.90
24374;DHT22;12498;50.880;12.096;2022-08-03T01:05:56;18.50;99.90
24374;DHT22;12498;50.880;12.096;2022-08-03T01:11:16;18.30;99.90
24374;DHT22;12498;50.880;12.096;2022-08-03T01:13:52;18.30;99.90
24374;DHT22;12498;50.880;12.096;2022-08-03T01:16:22;18.30;99.90
24374;DHT22;12498;50.880;12.096;2022-08-03T01:19:19;18.30;99.90
24374;DHT22;12498;50.880;12.096;2022-08-03T01:22:09;18.30;99.90
24374;DHT22;12498;50.880;12.096;2022-08-03T01:24:43;18.30;99.90
24374;DHT22;12498;50.880;12.096;2022-08-03T01:27:18;18.20;99.90
24374;DHT22;12498;50.880;12.096;2022-08-03T01:30:02;18.10;99.90
24374;DHT22;12498;50.880;12.096;2022-08-03T01:35:19;18.10;99.90
24374;DHT22;12498;50.880;12.096;2022-08-03T01:37:54;18.00;99.90
24374;DHT22;12498;50.880;12.096;2022-08-03T01:40:24;18.00;99.90
24374;DHT22;12498;50.880;12.096;2022-08-03T01:42:52;18.00;99.90
24374;DHT22;12498;50.880;12.096;2022-08-03T01:45:20;18.00;99.90
24374;DHT22;12498;50.880;12.096;2022-08-03T01:47:47;17.90;99.90
24374;DHT22;12498;50.880;12.096;2022-08-03T01:50:14;17.90;99.90
24374;DHT22;12498;50.880;12.096;2022-08-03T01:52:43;17.90;99.90
24374;DHT22;12498;50.880;12.096;2022-08-03T01:55:11;17.90;99.90
24374;DHT22;12498;50.880;12.096;2022-08-03T01:57:39;17.90;99.90
24374;DHT22;12498;50.880;12.096;2022-08-03T02:00:08;17.80;99.90
24374;DHT22;12498;50.880;12.096;2022-08-03T02:02:35;17.80;99.90
24374;DHT22;12498;50.880;12.096;2022-08-03T02:05:05;17.80;99.90
24374;DHT22;12498;50.880;12.096;2022-08-03T02:07:32;17.80;99.90
24374;DHT22;12498;50.880;12.096;2022-08-03T02:10:00;17.80;99.90
24374;DHT22;12498;50.880;12.096;2022-08-03T02:12:29;17.80;99.90
24374;DHT22;12498;50.880;12.096;2022-08-03T02:14:56;17.80;99.90
24374;DHT22;12498;50.880;12.096;2022-08-03T02:17:26;17.70;99.90
24374;DHT22;12498;50.880;12.096;2022-08-03T02:19:53;17.70;99.90
24374;DHT22;12498;50.880;12.096;2022-08-03T02:22:21;17.70;99.90
24374;DHT22;12498;50.880;12.096;2022-08-03T02:24:48;17.60;99.90
24374;DHT22;12498;50.880;12.096;2022-08-03T02:27:22;17.60;99.90
24374;DHT22;12498;50.880;12.096;2022-08-03T02:29:52;17.60;99.90
24374;DHT22;12498;50.880;12.096;2022-08-03T02:32:20;17.60;99.90
24374;DHT22;12498;50.880;12.096;2022-08-03T02:34:50;17.50;99.90
24374;DHT22;12498;50.880;12.096;2022-08-03T02:37:18;17.50;99.90
24374;DHT22;12498;50.880;12.096;2022-08-03T02:39:46;17.60;99.90
24374;DHT22;12498;50.880;12.096;2022-08-03T02:42:13;17.50;99.90
24374;DHT22;12498;50.880;12.096;2022-08-03T02:44:40;17.60;99.90
24374;DHT22;12498;50.880;12.096;2022-08-03T02:47:12;17.50;99.90
24374;DHT22;12498;50.880;12.096;2022-08-03T02:49:38;17.50;99.90
24374;DHT22;12498;50.880;12.096;2022-08-03T02:52:08;17.50;99.90
24374;DHT22;12498;50.880;12.096;2022-08-03T02:54:34;17.50;99.90
24374;DHT22;12498;50.880;12.096;2022-08-03T02:57:01;17.50;99.90
24374;DHT22;12498;50.880;12.096;2022-08-03T02:59:28;17.50;99.90
24374;DHT22;12498;50.880;12.096;2022-08-03T03:01:56;17.50;99.90
24374;DHT22;12498;50.880;12.096;2022-08-03T03:04:23;17.40;99.90
24374;DHT22;12498;50.880;12.096;2022-08-03T03:06:49;17.30;99.90
24374;DHT22;12498;50.880;12.096;2022-08-03T03:09:16;17.30;99.90
24374;DHT22;12498;50.880;12.096;2022-08-03T03:11:43;17.30;99.90
24374;DHT22;12498;50.880;12.096;2022-08-03T03:14:10;17.30;99.90
24374;DHT22;12498;50.880;12.096;2022-08-03T03:16:39;17.40;99.90
24374;DHT22;12498;50.880;12.096;2022-08-03T03:19:05;17.30;99.90
24374;DHT22;12498;50.880;12.096;2022-08-03T03:21:33;17.30;99.90
24374;DHT22;12498;50.880;12.096;2022-08-03T03:24:00;17.20;99.90
24374;DHT22;12498;50.880;12.096;2022-08-03T03:26:26;17.20;99.90
24374;DHT22;12498;50.880;12.096;2022-08-03T03:28:52;17.20;99.90
24374;DHT22;12498;50.880;12.096;2022-08-03T03:31:18;17.20;99.90
24374;DHT22;12498;50.880;12.096;2022-08-03T03:33:44;17.20;99.90
24374;DHT22;12498;50.880;12.096;2022-08-03T03:36:10;17.20;99.90
24374;DHT22;12498;50.880;12.096;2022-08-03T03:38:36;17.20;99.90
24374;DHT22;12498;50.880;12.096;2022-08-03T03:41:02;17.10;99.90
24374;DHT22;12498;50.880;12.096;2022-08-03T03:43:28;17.20;99.90
24374;DHT22;12498;50.880;12.096;2022-08-03T03:45:54;17.20;99.90
24374;DHT22;12498;50.880;12.096;2022-08-03T03:48:20;17.20;99.90
24374;DHT22;12498;50.880;12.096;2022-08-03T03:50:48;17.10;99.90
24374;DHT22;12498;50.880;12.096;2022-08-03T03:53:14;17.10;99.90
24374;DHT22;12498;50.880;12.096;2022-08-03T03:55:40;17.10;99.90
24374;DHT22;12498;50.880;12.096;2022-08-03T03:58:06;17.10;99.90
24374;DHT22;12498;50.880;12.096;2022-08-03T04:00:32;17.10;99.90
24374;DHT22;12498;50.880;12.096;2022-08-03T04:02:58;17.10;99.90
24374;DHT22;12498;50.880;12.096;2022-08-03T04:05:24;17.10;99.90
24374;DHT22;12498;50.880;12.096;2022-08-03T04:08:12;17.10;99.90
24374;DHT22;12498;50.880;12.096;2022-08-03T04:11:09;17.10;99.90
24374;DHT22;12498;50.880;12.096;2022-08-03T04:13:43;17.10;99.90
24374;DHT22;12498;50.880;12.096;2022-08-03T04:16:13;17.10;99.90
24374;DHT22;12498;50.880;12.096;2022-08-03T04:18:40;17.10;99.90
24374;DHT22;12498;50.880;12.096;2022-08-03T04:21:09;17.10;99.90
24374;DHT22;12498;50.880;12.096;2022-08-03T04:23:39;17.10;99.90
24374;DHT22;12498;50.880;12.096;2022-08-03T04:26:07;17.20;99.90
24374;DHT22;12498;50.880;12.096;2022-08-03T04:28:35;17.20;99.90
24374;DHT22;12498;50.880;12.096;2022-08-03T04:31:03;17.10;99.90
24374;DHT22;12498;50.880;12.096;2022-08-03T04:33:33;17.20;99.90
24374;DHT22;12498;50.880;12.096;2022-08-03T04:36:01;17.20;99.90
24374;DHT22;12498;50.880;12.096;2022-08-03T04:38:34;17.30;99.90
24374;DHT22;12498;50.880;12.096;2022-08-03T04:41:01;17.30;99.90
24374;DHT22;12498;50.880;12.096;2022-08-03T04:43:27;17.20;99.90
24374;DHT22;12498;50.880;12.096;2022-08-03T04:45:54;17.30;99.90
24374;DHT22;12498;50.880;12.096;2022-08-03T04:48:21;17.40;99.90
24374;DHT22;12498;50.880;12.096;2022-08-03T04:50:47;17.40;99.90
24374;DHT22;12498;50.880;12.096;2022-08-03T04:53:15;17.50;99.90
24374;DHT22;12498;50.880;12.096;2022-08-03T04:55:41;17.50;99.90
24374;DHT22;12498;50.880;12.096;2022-08-03T04:58:07;17.50;99.90
24374;DHT22;12498;50.880;12.096;2022-08-03T05:00:32;17.60;99.90
24374;DHT22;12498;50.880;12.096;2022-08-03T05:02:58;17.60;99.90
24374;DHT22;12498;50.880;12.096;2022-08-03T05:05:26;17.70;99.90
24374;DHT22;12498;50.880;12.096;2022-08-03T05:07:51;17.70;99.90
24374;DHT22;12498;50.880;12.096;2022-08-03T05:10:17;17.80;99.90
24374;DHT22;12498;50.880;12.096;2022-08-03T05:12:44;17.80;99.90
24374;DHT22;12498;50.880;12.096;2022-08-03T05:15:10;17.90;99.90
24374;DHT22;12498;50.880;12.096;2022-08-03T05:17:36;17.90;99.90
24374;DHT22;12498;50.880;12.096;2022-08-03T05:20:03;17.90;99.90
24374;DHT22;12498;50.880;12.096;2022-08-03T05:22:29;18.00;99.90
24374;DHT22;12498;50.880;12.096;2022-08-03T05:24:54;18.00;99.90
24374;DHT22;12498;50.880;12.096;2022-08-03T05:27:20;18.10;99.90
24374;DHT22;12498;50.880;12.096;2022-08-03T05:29:47;18.10;99.90
24374;DHT22;12498;50.880;12.096;2022-08-03T05:32:13;18.20;99.90
24374;DHT22;12498;50.880;12.096;2022-08-03T05:34:39;18.20;99.90
24374;DHT22;12498;50.880;12.096;2022-08-03T05:37:05;18.30;99.90
24374;DHT22;12498;50.880;12.096;2022-08-03T05:39:32;18.40;99.90
24374;DHT22;12498;50.880;12.096;2022-08-03T05:41:58;18.40;99.90
24374;DHT22;12498;50.880;12.096;2022-08-03T05:44:23;18.50;99.90
24374;DHT22;12498;50.880;12.096;2022-08-03T05:46:50;18.60;99.90
24374;DHT22;12498;50.880;12.096;2022-08-03T05:49:18;18.60;99.90
24374;DHT22;12498;50.880;12.096;2022-08-03T05:51:44;18.60;99.90
24374;DHT22;12498;50.880;12.096;2022-08-03T05:54:12;18.70;99.90
24374;DHT22;12498;50.880;12.096;2022-08-03T05:56:38;18.70;99.90
24374;DHT22;12498;50.880;12.096;2022-08-03T05:59:06;18.80;99.90
24374;DHT22;12498;50.880;12.096;2022-08-03T06:01:32;18.80;99.90
24374;DHT22;12498;50.880;12.096;2022-08-03T06:03:58;18.90;99.90
24374;DHT22;12498;50.880;12.096;2022-08-03T06:06:24;19.00;99.90
24374;DHT22;12498;50.880;12.096;2022-08-03T06:08:49;19.00;99.90
24374;DHT22;12498;50.880;12.096;2022-08-03T06:11:15;19.10;99.90
24374;DHT22;12498;50.880;12.096;2022-08-03T06:13:41;19.10;99.90
24374;DHT22;12498;50.880;12.096;2022-08-03T06:16:07;19.20;99.90
24374;DHT22;12498;50.880;12.096;2022-08-03T06:18:33;19.20;99.90
24374;DHT22;12498;50.880;12.096;2022-08-03T06:20:59;19.30;99.90
24374;DHT22;12498;50.880;12.096;2022-08-03T06:23:25;19.40;99.90
24374;DHT22;12498;50.880;12.096;2022-08-03T06:25:50;19.40;99.90
24374;DHT22;12498;50.880;12.096;2022-08-03T06:28:16;19.40;99.90
24374;DHT22;12498;50.880;12.096;2022-08-03T06:30:42;19.50;99.90
24374;DHT22;12498;50.880;12.096;2022-08-03T06:33:08;19.60;99.90
24374;DHT22;12498;50.880;12.096;2022-08-03T06:35:34;19.70;99.90
24374;DHT22;12498;50.880;12.096;2022-08-03T06:37:59;19.80;99.90
24374;DHT22;12498;50.880;12.096;2022-08-03T06:40:25;19.90;99.90
24374;DHT22;12498;50.880;12.096;2022-08-03T06:42:59;20.00;99.90
24374;DHT22;12498;50.880;12.096;2022-08-03T06:45:25;20.00;99.90
24374;DHT22;12498;50.880;12.096;2022-08-03T06:48:08;20.10;99.90
24374;DHT22;12498;50.880;12.096;2022-08-03T06:50:36;20.20;99.90
24374;DHT22;12498;50.880;12.096;2022-08-03T06:53:03;20.40;99.90
24374;DHT22;12498;50.880;12.096;2022-08-03T06:55:29;20.40;99.90
24374;DHT22;12498;50.880;12.096;2022-08-03T06:57:55;20.50;99.90
24374;DHT22;12498;50.880;12.096;2022-08-03T07:00:21;20.60;99.90
24374;DHT22;12498;50.880;12.096;2022-08-03T07:02:47;20.70;99.90
24374;DHT22;12498;50.880;12.096;2022-08-03T07:05:13;20.80;99.90
24374;DHT22;12498;50.880;12.096;2022-08-03T07:07:39;20.90;99.90
24374;DHT22;12498;50.880;12.096;2022-08-03T07:10:06;20.90;99.90
24374;DHT22;12498;50.880;12.096;2022-08-03T07:12:33;21.00;99.90
24374;DHT22;12498;50.880;12.096;2022-08-03T07:14:59;21.10;99.90
24374;DHT22;12498;50.880;12.096;2022-08-03T07:17:25;21.20;99.90
24374;DHT22;12498;50.880;12.096;2022-08-03T07:19:51;21.40;99.90
24374;DHT22;12498;50.880;12.096;2022-08-03T07:22:17;21.40;99.90
24374;DHT22;12498;50.880;12.096;2022-08-03T07:24:42;21.50;99.90
24374;DHT22;12498;50.880;12.096;2022-08-03T07:27:09;21.70;99.90
24374;DHT22;12498;50.880;12.096;2022-08-03T07:29:35;21.80;99.90
24374;DHT22;12498;50.880;12.096;2022-08-03T07:32:02;21.90;99.90
24374;DHT22;12498;50.880;12.096;2022-08-03T07:34:29;21.90;99.90
24374;DHT22;12498;50.880;12.096;2022-08-03T07:36:54;22.10;99.90
24374;DHT22;12498;50.880;12.096;2022-08-03T07:39:20;22.10;99.90
24374;DHT22;12498;50.880;12.096;2022-08-03T07:41:49;22.20;99.90
24374;DHT22;12498;50.880;12.096;2022-08-03T07:44:18;22.30;99.90
24374;DHT22;12498;50.880;12.096;2022-08-03T07:46:44;22.40;99.90
24374;DHT22;12498;50.880;12.096;2022-08-03T07:49:10;22.50;99.90
24374;DHT22;12498;50.880;12.096;2022-08-03T07:51:36;22.60;99.90
24374;DHT22;12498;50.880;12.096;2022-08-03T07:54:02;22.70;99.90
24374;DHT22;12498;50.880;12.096;2022-08-03T07:56:28;22.80;99.90
24374;DHT22;12498;50.880;12.096;2022-08-03T07:58:54;23.00;99.90
24374;DHT22;12498;50.880;12.096;2022-08-03T08:01:20;23.10;99.90
24374;DHT22;12498;50.880;12.096;2022-08-03T08:03:46;23.10;99.90
24374;DHT22;12498;50.880;12.096;2022-08-03T08:09:47;23.40;99.90
24374;DHT22;12498;50.880;12.096;2022-08-03T08:12:12;23.50;99.90
24374;DHT22;12498;50.880;12.096;2022-08-03T08:14:38;23.60;99.90
24374;DHT22;12498;50.880;12.096;2022-08-03T08:17:07;23.60;99.90
24374;DHT22;12498;50.880;12.096;2022-08-03T08:19:32;23.70;99.90
24374;DHT22;12498;50.880;12.096;2022-08-03T08:21:58;23.80;99.90
24374;DHT22;12498;50.880;12.096;2022-08-03T08:24:24;23.80;99.90
24374;DHT22;12498;50.880;12.096;2022-08-03T08:26:49;23.90;99.90
24374;DHT22;12498;50.880;12.096;2022-08-03T08:29:15;24.10;99.90
24374;DHT22;12498;50.880;12.096;2022-08-03T08:31:41;24.20;99.90
24374;DHT22;12498;50.880;12.096;2022-08-03T08:34:07;24.30;99.90
24374;DHT22;12498;50.880;12.096;2022-08-03T08:36:34;24.30;99.90
24374;DHT22;12498;50.880;12.096;2022-08-03T08:39:00;24.40;99.90
24374;DHT22;12498;50.880;12.096;2022-08-03T08:41:26;24.50;99.90
24374;DHT22;12498;50.880;12.096;2022-08-03T08:43:53;24.70;99.90
24374;DHT22;12498;50.880;12.096;2022-08-03T08:46:19;24.70;99.90
24374;DHT22;12498;50.880;12.096;2022-08-03T08:48:45;24.80;99.90
24374;DHT22;12498;50.880;12.096;2022-08-03T08:51:13;24.80;99.90
24374;DHT22;12498;50.880;12.096;2022-08-03T08:53:42;25.00;99.90
24374;DHT22;12498;50.880;12.096;2022-08-03T08:56:12;25.00;99.90
24374;DHT22;12498;50.880;12.096;2022-08-03T08:58:47;25.10;99.90
24374;DHT22;12498;50.880;12.096;2022-08-03T09:01:13;25.10;99.90
24374;DHT22;12498;50.880;12.096;2022-08-03T09:03:39;25.20;99.90
24374;DHT22;12498;50.880;12.096;2022-08-03T09:06:05;25.30;99.90
24374;DHT22;12498;50.880;12.096;2022-08-03T09:08:32;25.40;99.90
24374;DHT22;12498;50.880;12.096;2022-08-03T09:10:58;25.50;99.90
24374;DHT22;12498;50.880;12.096;2022-08-03T09:13:24;25.60;99.90
24374;DHT22;12498;50.880;12.096;2022-08-03T09:18:33;26.00;99.90
24374;DHT22;12498;50.880;12.096;2022-08-03T09:23:49;26.60;99.90
24374;DHT22;12498;50.880;12.096;2022-08-03T09:26:26;26.90;99.90
24374;DHT22;12498;50.880;12.096;2022-08-03T09:34:08;28.00;98.00
24374;DHT22;12498;50.880;12.096;2022-08-03T09:36:48;28.30;96.80
24374;DHT22;12498;50.880;12.096;2022-08-03T09:39:16;28.70;96.70
24374;DHT22;12498;50.880;12.096;2022-08-03T09:42:03;29.40;94.60
24374;DHT22;12498;50.880;12.096;2022-08-03T09:44:37;30.20;92.60
24374;DHT22;12498;50.880;12.096;2022-08-03T09:47:05;31.00;90.30
24374;DHT22;12498;50.880;12.096;2022-08-03T09:49:31;31.60;86.00
24374;DHT22;12498;50.880;12.096;2022-08-03T09:52:01;32.30;80.50
24374;DHT22;12498;50.880;12.096;2022-08-03T09:54:29;33.10;76.90
24374;DHT22;12498;50.880;12.096;2022-08-03T09:56:55;33.70;71.90
24374;DHT22;12498;50.880;12.096;2022-08-03T09:59:26;34.80;68.70
24374;DHT22;12498;50.880;12.096;2022-08-03T10:01:54;35.30;65.00
24374;DHT22;12498;50.880;12.096;2022-08-03T10:04:20;35.70;62.90
24374;DHT22;12498;50.880;12.096;2022-08-03T10:07:08;36.50;60.10
24374;DHT22;12498;50.880;12.096;2022-08-03T10:09:37;37.00;57.70
24374;DHT22;12498;50.880;12.096;2022-08-03T10:12:11;37.40;55.60
24374;DHT22;12498;50.880;12.096;2022-08-03T10:14:39;37.60;53.40
24374;DHT22;12498;50.880;12.096;2022-08-03T10:17:08;38.10;52.30
24374;DHT22;12498;50.880;12.096;2022-08-03T10:19:34;38.40;51.90
24374;DHT22;12498;50.880;12.096;2022-08-03T10:22:03;38.80;50.70
24374;DHT22;12498;50.880;12.096;2022-08-03T10:24:33;39.20;49.60
24374;DHT22;12498;50.880;12.096;2022-08-03T10:27:03;39.50;49.20
24374;DHT22;12498;50.880;12.096;2022-08-03T10:29:34;39.70;48.40
24374;DHT22;12498;50.880;12.096;2022-08-03T10:32:03;39.90;47.90
24374;DHT22;12498;50.880;12.096;2022-08-03T10:34:34;39.60;47.00
24374;DHT22;12498;50.880;12.096;2022-08-03T10:37:08;39.30;46.50
24374;DHT22;12498;50.880;12.096;2022-08-03T10:39:35;39.30;46.10
24374;DHT22;12498;50.880;12.096;2022-08-03T10:42:01;39.20;44.30
24374;DHT22;12498;50.880;12.096;2022-08-03T10:44:32;39.30;44.40
24374;DHT22;12498;50.880;12.096;2022-08-03T10:47:00;39.50;44.20
24374;DHT22;12498;50.880;12.096;2022-08-03T10:49:26;39.70;43.80
24374;DHT22;12498;50.880;12.096;2022-08-03T10:51:54;40.40;42.80
24374;DHT22;12498;50.880;12.096;2022-08-03T10:54:39;41.00;42.50
24374;DHT22;12498;50.880;12.096;2022-08-03T10:57:44;40.70;40.90
24374;DHT22;12498;50.880;12.096;2022-08-03T11:00:17;41.30;41.40
24374;DHT22;12498;50.880;12.096;2022-08-03T11:05:42;41.80;40.10
24374;DHT22;12498;50.880;12.096;2022-08-03T11:08:33;42.00;39.50
24374;DHT22;12498;50.880;12.096;2022-08-03T11:11:02;42.80;38.80
24374;DHT22;12498;50.880;12.096;2022-08-03T11:16:23;43.40;36.80
24374;DHT22;12498;50.880;12.096;2022-08-03T11:18:58;42.80;36.40
24374;DHT22;12498;50.880;12.096;2022-08-03T11:27:17;42.70;35.90
24374;DHT22;12498;50.880;12.096;2022-08-03T11:37:34;45.60;33.80
24374;DHT22;12498;50.880;12.096;2022-08-03T11:40:00;45.90;33.60
24374;DHT22;12498;50.880;12.096;2022-08-03T11:44:57;46.70;32.40
24374;DHT22;12498;50.880;12.096;2022-08-03T11:47:25;46.60;31.50
24374;DHT22;12498;50.880;12.096;2022-08-03T11:49:55;46.20;31.60
24374;DHT22;12498;50.880;12.096;2022-08-03T11:52:23;46.40;31.00
24374;DHT22;12498;50.880;12.096;2022-08-03T11:54:53;46.60;30.40
24374;DHT22;12498;50.880;12.096;2022-08-03T11:57:32;46.90;29.90
24374;DHT22;12498;50.880;12.096;2022-08-03T11:59:58;46.80;29.60
24374;DHT22;12498;50.880;12.096;2022-08-03T12:02:24;47.20;29.40
24374;DHT22;12498;50.880;12.096;2022-08-03T12:04:54;47.50;29.40
24374;DHT22;12498;50.880;12.096;2022-08-03T12:07:25;47.50;29.00
24374;DHT22;12498;50.880;12.096;2022-08-03T12:10:11;48.10;28.70
24374;DHT22;12498;50.880;12.096;2022-08-03T12:12:39;47.70;1.00
24374;DHT22;12498;50.880;12.096;2022-08-03T12:15:05;48.00;1.00
24374;DHT22;12498;50.880;12.096;2022-08-03T12:17:35;48.20;1.00
24374;DHT22;12498;50.880;12.096;2022-08-03T12:20:03;49.10;1.00
24374;DHT22;12498;50.880;12.096;2022-08-03T12:22:38;49.40;1.00
24374;DHT22;12498;50.880;12.096;2022-08-03T12:25:05;49.30;99.90
24374;DHT22;12498;50.880;12.096;2022-08-03T12:27:31;49.00;99.90
24374;DHT22;12498;50.880;12.096;2022-08-03T12:29:58;49.20;99.90
24374;DHT22;12498;50.880;12.096;2022-08-03T12:32:27;49.10;99.90
24374;DHT22;12498;50.880;12.096;2022-08-03T12:34:56;49.20;99.90
24374;DHT22;12498;50.880;12.096;2022-08-03T12:37:25;48.90;1.00
24374;DHT22;12498;50.880;12.096;2022-08-03T12:39:53;49.20;1.00
24374;DHT22;12498;50.880;12.096;2022-08-03T12:42:18;47.70;1.00
24374;DHT22;12498;50.880;12.096;2022-08-03T12:44:44;47.20;99.90
24374;DHT22;12498;50.880;12.096;2022-08-03T12:47:11;46.70;1.00
24374;DHT22;12498;50.880;12.096;2022-08-03T12:49:51;46.60;99.90
24374;DHT22;12498;50.880;12.096;2022-08-03T12:52:18;46.00;99.90
24374;DHT22;12498;50.880;12.096;2022-08-03T12:54:54;46.00;99.90
24374;DHT22;12498;50.880;12.096;2022-08-03T12:57:20;46.20;99.90
24374;DHT22;12498;50.880;12.096;2022-08-03T12:59:46;45.10;99.90
24374;DHT22;12498;50.880;12.096;2022-08-03T13:02:23;44.40;99.90
24374;DHT22;12498;50.880;12.096;2022-08-03T13:04:51;44.80;99.90
24374;DHT22;12498;50.880;12.096;2022-08-03T13:07:17;45.50;42.00
24374;DHT22;12498;50.880;12.096;2022-08-03T13:12:15;45.70;52.30
24374;DHT22;12498;50.880;12.096;2022-08-03T13:14:42;45.80;1.00
24374;DHT22;12498;50.880;12.096;2022-08-03T13:17:08;45.90;1.00
24374;DHT22;12498;50.880;12.096;2022-08-03T13:19:38;45.10;1.00
24374;DHT22;12498;50.880;12.096;2022-08-03T13:24:45;45.50;1.00
24374;DHT22;12498;50.880;12.096;2022-08-03T13:27:11;45.60;99.90
24374;DHT22;12498;50.880;12.096;2022-08-03T13:29:37;45.30;99.90
24374;DHT22;12498;50.880;12.096;2022-08-03T13:32:03;45.30;99.90
24374;DHT22;12498;50.880;12.096;2022-08-03T13:34:29;45.10;99.90
24374;DHT22;12498;50.880;12.096;2022-08-03T13:36:55;45.00;99.90
24374;DHT22;12498;50.880;12.096;2022-08-03T13:39:20;45.10;99.90
24374;DHT22;12498;50.880;12.096;2022-08-03T13:41:46;44.50;99.90
24374;DHT22;12498;50.880;12.096;2022-08-03T13:44:12;45.10;99.90
24374;DHT22;12498;50.880;12.096;2022-08-03T13:46:39;44.20;99.90
24374;DHT22;12498;50.880;12.096;2022-08-03T13:49:05;44.20;99.90
24374;DHT22;12498;50.880;12.096;2022-08-03T13:51:31;44.20;99.90
24374;DHT22;12498;50.880;12.096;2022-08-03T13:53:57;44.20;1.00
24374;DHT22;12498;50.880;12.096;2022-08-03T13:56:25;44.10;5.60
24374;DHT22;12498;50.880;12.096;2022-08-03T13:58:50;43.70;99.90
24374;DHT22;12498;50.880;12.096;2022-08-03T14:01:16;43.50;1.00
24374;DHT22;12498;50.880;12.096;2022-08-03T14:03:42;43.10;99.90
24374;DHT22;12498;50.880;12.096;2022-08-03T14:06:08;43.10;1.00
24374;DHT22;12498;50.880;12.096;2022-08-03T14:08:33;42.90;99.90
24374;DHT22;12498;50.880;12.096;2022-08-03T14:10:59;43.20;99.90
24374;DHT22;12498;50.880;12.096;2022-08-03T14:13:24;43.40;1.00
24374;DHT22;12498;50.880;12.096;2022-08-03T14:15:50;42.90;99.90
24374;DHT22;12498;50.880;12.096;2022-08-03T14:18:17;42.40;99.90
24374;DHT22;12498;50.880;12.096;2022-08-03T14:20:43;42.00;99.90
24374;DHT22;12498;50.880;12.096;2022-08-03T14:23:10;42.10;99.90
24374;DHT22;12498;50.880;12.096;2022-08-03T14:25:35;41.80;99.90
24374;DHT22;12498;50.880;12.096;2022-08-03T14:28:01;41.50;99.90
24374;DHT22;12498;50.880;12.096;2022-08-03T14:30:26;41.00;99.90
24374;DHT22;12498;50.880;12.096;2022-08-03T14:32:52;40.50;99.90
24374;DHT22;12498;50.880;12.096;2022-08-03T14:35:17;40.00;99.90
24374;DHT22;12498;50.880;12.096;2022-08-03T14:37:43;39.40;99.90
24374;DHT22;12498;50.880;12.096;2022-08-03T14:40:09;38.70;99.90
24374;DHT22;12498;50.880;12.096;2022-08-03T14:42:35;38.70;99.90
24374;DHT22;12498;50.880;12.096;2022-08-03T14:45:01;38.40;99.90
24374;DHT22;12498;50.880;12.096;2022-08-03T14:47:27;38.10;99.90
24374;DHT22;12498;50.880;12.096;2022-08-03T14:49:52;38.40;99.90
24374;DHT22;12498;50.880;12.096;2022-08-03T14:52:18;38.40;99.90
24374;DHT22;12498;50.880;12.096;2022-08-03T14:54:44;38.20;99.90
24374;DHT22;12498;50.880;12.096;2022-08-03T14:57:10;37.80;99.90
24374;DHT22;12498;50.880;12.096;2022-08-03T14:59:35;37.50;99.90
24374;DHT22;12498;50.880;12.096;2022-08-03T15:02:01;37.40;99.90
24374;DHT22;12498;50.880;12.096;2022-08-03T15:04:26;37.40;99.90
24374;DHT22;12498;50.880;12.096;2022-08-03T15:06:52;37.00;99.90
24374;DHT22;12498;50.880;12.096;2022-08-03T15:09:17;36.90;99.90
24374;DHT22;12498;50.880;12.096;2022-08-03T15:11:43;37.00;99.90
24374;DHT22;12498;50.880;12.096;2022-08-03T15:14:09;37.00;99.90
24374;DHT22;12498;50.880;12.096;2022-08-03T15:16:35;37.10;99.90
24374;DHT22;12498;50.880;12.096;2022-08-03T15:19:01;37.20;99.90
24374;DHT22;12498;50.880;12.096;2022-08-03T15:21:26;37.20;99.90
24374;DHT22;12498;50.880;12.096;2022-08-03T15:23:52;37.10;99.90
24374;DHT22;12498;50.880;12.096;2022-08-03T15:26:18;37.10;99.90
24374;DHT22;12498;50.880;12.096;2022-08-03T15:28:44;37.20;99.90
24374;DHT22;12498;50.880;12.096;2022-08-03T15:31:09;37.10;99.90
24374;DHT22;12498;50.880;12.096;2022-08-03T15:33:36;37.00;99.90
24374;DHT22;12498;50.880;12.096;2022-08-03T15:36:02;36.60;99.90
24374;DHT22;12498;50.880;12.096;2022-08-03T15:38:28;36.70;99.90
24374;DHT22;12498;50.880;12.096;2022-08-03T15:40:54;36.80;99.90
24374;DHT22;12498;50.880;12.096;2022-08-03T15:43:20;36.80;99.90
24374;DHT22;12498;50.880;12.096;2022-08-03T15:45:46;36.90;99.90
24374;DHT22;12498;50.880;12.096;2022-08-03T15:48:12;36.80;99.90
24374;DHT22;12498;50.880;12.096;2022-08-03T15:50:38;36.50;99.90
24374;DHT22;12498;50.880;12.096;2022-08-03T15:53:03;36.60;99.90
24374;DHT22;12498;50.880;12.096;2022-08-03T15:55:29;36.70;99.90
24374;DHT22;12498;50.880;12.096;2022-08-03T15:57:56;36.90;99.90
24374;DHT22;12498;50.880;12.096;2022-08-03T16:00:22;37.20;99.90
24374;DHT22;12498;50.880;12.096;2022-08-03T16:02:48;37.30;99.90
24374;DHT22;12498;50.880;12.096;2022-08-03T16:05:13;37.20;99.90
24374;DHT22;12498;50.880;12.096;2022-08-03T16:07:39;37.00;99.90